Terminal Aerodrome Forecast
Issued by NWS

Current Version | Previous Version | Graphics & Text | Print | Product List | Glossary On
Versions: 1 2 3 4 5 6 7 8 9 10 11 12 13 14 15 16 17 18 19 20 21 22
912
FTUS41 KPBZ 302338
TAFHLG
TAF
KHLG 302338Z 0100/0124 08014G21KT P6SM BKN015
     FM010200 09009KT P6SM VCSH BKN025
     FM010900 11004KT P6SM VCSH BKN008
     FM011400 14003KT P6SM BKN015
     FM011600 15004KT P6SM BKN035=

USA.gov is the U.S. government's official web portal to all federal, state and local government web resources and services.